Time;durP1;ratioP1;P1;durP2;ratioP2;P2;SDS_P1;SDS_P2;PMS_P1;PMS_P2;Temp;Humidity;BMP_temperature;BMP_pressure;BME280_temperature;BME280_humidity;BME280_pressure;Samples;Min_cycle;Max_cycle;Signal;HPM_P1;HPM_P2
2023/04/07 00:03:32;;;;;;;41.50;28.40;;;;;;;0.98;82.52;98809.36;218397;1300;25305;-74
2023/04/07 00:08:35;;;;;;;40.10;27.40;;;;;;;0.97;82.37;98805.63;217826;1302;23289;-74
2023/04/07 00:13:38;;;;;;;37.60;26.70;;;;;;;0.98;82.37;98797.89;217760;1301;23851;-74
2023/04/07 00:18:45;;;;;;;35.00;25.20;;;;;;;1.00;82.38;98798.48;218139;1296;22557;-74
2023/04/07 00:23:59;;;;;;;34.40;25.30;;;;;;;1.01;82.41;98794.58;218075;1298;23972;-74
2023/04/07 00:29:05;;;;;;;31.60;22.90;;;;;;;0.99;82.92;98786.77;218055;1298;22549;-74
2023/04/07 00:34:18;;;;;;;32.00;24.80;;;;;;;0.98;82.90;98780.07;217868;1302;23017;-74
2023/04/07 00:39:20;;;;;;;28.10;20.60;;;;;;;0.98;82.82;98777.61;217825;1301;23392;-74
2023/04/07 00:44:24;;;;;;;28.70;22.30;;;;;;;0.96;82.78;98774.16;217796;1296;22557;-74
2023/04/07 00:49:30;;;;;;;32.00;24.30;;;;;;;0.95;83.16;98767.28;217814;1299;23394;-75
2023/04/07 00:54:34;;;;;;;29.20;21.70;;;;;;;0.95;83.14;98761.59;218046;1302;22559;-74
2023/04/07 00:59:37;;;;;;;27.60;21.30;;;;;;;0.94;83.20;98755.80;217987;1295;23338;-74
2023/04/07 01:04:50;;;;;;;30.70;23.10;;;;;;;0.93;83.45;98751.73;217662;1301;25331;-74
2023/04/07 01:10:04;;;;;;;25.30;20.50;;;;;;;0.91;83.39;98746.98;218041;1281;25457;-74
2023/04/07 01:15:20;;;;;;;28.20;21.50;;;;;;;0.90;83.59;98742.91;217696;1302;22652;-73
2023/04/07 01:20:31;;;;;;;27.80;22.00;;;;;;;0.89;83.50;98739.02;218038;1299;22569;-74
2023/04/07 01:26:03;;;;;;;27.80;21.50;;;;;;;0.90;83.55;98734.28;217603;1302;22585;-73
2023/04/07 01:31:09;;;;;;;29.40;21.40;;;;;;;0.91;83.50;98736.06;217735;1292;22553;-74
2023/04/07 01:36:35;;;;;;;25.90;20.40;;;;;;;0.90;83.53;98733.73;218037;1299;24262;-74
2023/04/07 01:41:42;;;;;;;27.90;20.90;;;;;;;0.88;83.45;98731.83;217756;1302;25397;-73
2023/04/07 01:46:45;;;;;;;25.90;19.10;;;;;;;0.87;84.05;98726.73;217748;1301;22671;-74
2023/04/07 01:51:51;;;;;;;30.50;21.40;;;;;;;0.85;83.60;98724.66;217545;1299;24270;-74
2023/04/07 01:57:10;;;;;;;28.40;21.70;;;;;;;0.84;83.84;98724.71;217604;1302;24295;-74
2023/04/07 02:02:41;;;;;;;28.70;20.70;;;;;;;0.85;83.90;98728.65;217681;1302;23744;-73
2023/04/07 02:08:00;;;;;;;27.60;20.90;;;;;;;0.86;84.17;98729.23;217997;1302;22549;-73
2023/04/07 02:13:09;;;;;;;28.10;21.30;;;;;;;0.84;84.00;98727.31;218129;1300;22569;-74
2023/04/07 02:18:35;;;;;;;28.70;20.80;;;;;;;0.83;84.29;98725.14;217945;1302;22657;-74
2023/04/07 02:23:48;;;;;;;27.40;19.40;;;;;;;0.83;84.40;98714.23;217747;1302;24396;-74
2023/04/07 02:28:56;;;;;;;25.70;20.00;;;;;;;0.82;84.47;98723.66;217662;1299;23828;-73
2023/04/07 02:33:59;;;;;;;30.10;21.90;;;;;;;0.81;84.23;98715.08;217892;1302;22723;-73
2023/04/07 02:39:03;;;;;;;27.60;20.40;;;;;;;0.80;83.90;98715.14;217775;1302;24256;-74
2023/04/07 02:44:08;;;;;;;24.90;18.80;;;;;;;0.81;84.44;98722.23;217662;1302;24318;-74
2023/04/07 02:49:11;;;;;;;27.40;20.30;;;;;;;0.81;84.40;98725.30;217982;1302;22564;-73
2023/04/07 02:54:14;;;;;;;28.30;20.50;;;;;;;0.81;84.55;98715.79;218058;1299;22548;-73
2023/04/07 02:59:21;;;;;;;30.60;21.30;;;;;;;0.79;84.54;98714.05;218088;1302;25421;-73
2023/04/07 03:04:32;;;;;;;28.40;20.30;;;;;;;0.79;84.49;98720.59;217660;1302;22605;-74
2023/04/07 03:09:35;;;;;;;28.50;20.60;;;;;;;0.81;84.25;98720.64;217939;1296;22541;-73
2023/04/07 03:14:38;;;;;;;34.10;20.20;;;;;;;0.82;84.44;98718.34;218340;1296;22557;-73
2023/04/07 03:19:56;;;;;;;31.90;21.70;;;;;;;0.83;84.52;98705.77;218081;1302;25095;-73
2023/04/07 03:24:59;;;;;;;30.10;20.60;;;;;;;0.83;84.55;98697.90;217677;1302;22568;-74
2023/04/07 03:30:14;;;;;;;28.00;21.00;;;;;;;0.84;84.60;98701.64;217937;1302;22543;-74
2023/04/07 03:35:21;;;;;;;28.10;20.90;;;;;;;0.86;84.55;98699.77;217717;1290;22973;-73
2023/04/07 03:40:24;;;;;;;28.60;19.50;;;;;;;0.87;84.53;98700.77;217787;1295;25277;-73
2023/04/07 03:45:32;;;;;;;32.20;22.40;;;;;;;0.85;84.50;98699.48;218092;1302;22588;-73
2023/04/07 03:50:39;;;;;;;32.10;22.80;;;;;;;0.85;84.68;98697.75;217743;1296;25328;-74
2023/04/07 03:55:47;;;;;;;33.80;22.80;;;;;;;0.86;84.81;98694.91;217894;1299;22556;-73
2023/04/07 04:01:01;;;;;;;33.40;22.80;;;;;;;0.87;85.03;98689.45;217876;1302;22642;-72
2023/04/07 04:06:05;;;;;;;33.00;22.50;;;;;;;0.88;84.88;98689.54;218097;1296;24269;-74
2023/04/07 04:11:08;;;;;;;33.50;22.70;;;;;;;0.89;84.75;98694.96;217765;1302;22546;-74
2023/04/07 04:16:53;;;;;;;32.50;22.00;;;;;;;0.91;84.80;98693.77;217758;1302;24246;-72
2023/04/07 04:22:03;;;;;;;33.10;22.80;;;;;;;0.93;84.89;98700.52;217973;1296;24987;-73
2023/04/07 04:27:10;;;;;;;32.70;22.70;;;;;;;0.93;84.95;98703.48;217803;1301;22563;-74
2023/04/07 04:32:14;;;;;;;38.30;23.40;;;;;;;0.93;84.92;98705.20;217797;1302;23234;-73
2023/04/07 04:37:17;;;;;;;32.50;21.80;;;;;;;0.93;84.94;98710.58;217757;1296;22549;-73
2023/04/07 04:42:21;;;;;;;33.10;23.30;;;;;;;0.94;85.03;98714.85;217780;1302;25270;-73
2023/04/07 04:47:25;;;;;;;34.60;21.90;;;;;;;0.94;85.24;98719.69;217880;1299;25592;-74
2023/04/07 04:52:30;;;;;;;33.20;23.00;;;;;;;0.96;85.13;98714.36;218006;1299;22549;-73
2023/04/07 04:57:37;;;;;;;33.60;22.20;;;;;;;0.94;85.22;98711.54;217748;1302;25264;-74
2023/04/07 05:02:45;;;;;;;32.10;20.40;;;;;;;0.92;84.80;98707.92;218199;1296;22681;-73
2023/04/07 05:07:49;;;;;;;32.10;21.50;;;;;;;0.92;84.98;98713.08;217761;1302;22568;-73
2023/04/07 05:12:53;;;;;;;27.90;17.40;;;;;;;0.93;85.07;98710.02;217623;1302;24170;-73
2023/04/07 05:18:01;;;;;;;28.40;18.90;;;;;;;0.96;85.04;98712.26;217987;1296;24318;-73
2023/04/07 05:23:25;;;;;;;;;;;;;;;;;;;;;
2023/04/07 05:28:36;;;;;;;27.90;19.50;;;;;;;1.02;85.22;98721.14;218130;1302;23383;-73
2023/04/07 05:33:43;;;;;;;30.30;19.60;;;;;;;1.03;85.40;98718.23;217664;1302;24141;-73
2023/04/07 05:38:47;;;;;;;33.70;20.80;;;;;;;1.06;85.16;98724.40;218215;1296;26409;-74
2023/04/07 05:43:52;;;;;;;27.70;18.40;;;;;;;1.08;85.04;98715.40;217772;1302;25312;-74
2023/04/07 05:49:04;;;;;;;25.80;18.50;;;;;;;1.11;85.52;98715.89;218207;1296;23046;-74
2023/04/07 05:54:39;;;;;;;23.40;16.50;;;;;;;1.14;85.34;98710.59;218598;1298;22550;-74
2023/04/07 05:59:49;;;;;;;18.30;13.40;;;;;;;1.16;85.29;98710.04;218248;1279;22637;-74
2023/04/07 06:05:06;;;;;;;17.70;12.50;;;;;;;1.20;85.10;98709.02;218395;1296;22559;-74
2023/04/07 06:10:11;;;;;;;16.40;11.50;;;;;;;1.24;85.38;98715.09;218123;1293;139045;-73
2023/04/07 06:15:17;;;;;;;18.90;13.10;;;;;;;1.26;85.29;98715.46;217827;1296;138970;-73
2023/04/07 06:20:27;;;;;;;19.00;13.50;;;;;;;1.29;85.43;98706.46;217791;1296;138828;-73
2023/04/07 06:25:30;;;;;;;22.70;15.10;;;;;;;1.34;85.59;98711.27;217705;1286;138894;-74
2023/04/07 06:30:40;;;;;;;19.40;13.10;;;;;;;1.41;85.65;98716.54;218160;1283;22549;-75
2023/04/07 06:36:04;;;;;;;;;;;;;;;1.50;85.68;98722.23;218279;1293;23254;-75
2023/04/07 06:41:27;;;;;;;16.20;12.30;;;;;;;1.50;85.47;98718.23;218416;1293;124671;-74
2023/04/07 06:46:30;;;;;;;14.90;12.20;;;;;;;1.51;85.33;98719.85;218221;1293;138724;-74
2023/04/07 06:52:01;;;;;;;15.50;11.00;;;;;;;1.54;85.58;98712.15;218222;1296;138886;-73
2023/04/07 06:57:42;;;;;;;;;;;;;;;;;;;;;
2023/04/07 07:03:11;;;;;;;;;;;;;;;;;;;;;
2023/04/07 07:08:31;;;;;;;15.30;11.10;;;;;;;1.64;85.14;98712.11;218229;1298;138871;-74
2023/04/07 07:13:53;;;;;;;14.70;10.50;;;;;;;1.71;85.30;98713.25;218171;1292;139032;-74
2023/04/07 07:19:07;;;;;;;17.00;12.60;;;;;;;1.75;85.33;98713.21;217848;1294;139478;-75
2023/04/07 07:24:15;;;;;;;15.10;11.40;;;;;;;1.81;85.33;98729.39;218789;1287;22661;-74
2023/04/07 07:30:08;;;;;;;14.90;10.70;;;;;;;1.90;85.22;98734.73;218250;1296;22762;-75
2023/04/07 07:35:15;;;;;;;14.50;10.40;;;;;;;1.98;85.23;98733.83;218424;1280;139586;-76
2023/04/07 07:40:38;;;;;;;;;;;;;;;;;;;;;
2023/04/07 07:46:15;;;;;;;13.80;10.30;;;;;;;2.10;84.98;98740.38;219948;1293;138783;-77
2023/04/07 07:51:53;;;;;;;13.70;9.40;;;;;;;2.22;84.83;98743.00;218414;1296;138872;-76
2023/04/07 07:57:04;;;;;;;12.90;9.30;;;;;;;2.31;84.83;98747.18;218588;1296;138859;-75
2023/04/07 08:02:11;;;;;;;13.30;10.00;;;;;;;2.36;84.76;98756.79;218419;1286;138675;-75
2023/04/07 08:07:20;;;;;;;;;;;;;;;2.37;84.77;98758.42;218531;1286;138999;-76
2023/04/07 08:12:49;;;;;;;11.50;8.60;;;;;;;2.49;84.66;98752.70;218524;1283;22549;-75
2023/04/07 08:17:51;;;;;;;14.10;9.90;;;;;;;2.55;84.38;98751.30;218384;1302;22569;-75
2023/04/07 08:23:08;;;;;;;15.30;12.10;;;;;;;2.54;84.41;98752.79;218421;1300;138434;-76
2023/04/07 08:28:12;;;;;;;16.70;11.90;;;;;;;2.51;84.65;98752.51;218470;1301;140140;-77
2023/04/07 08:33:25;;;;;;;17.90;12.20;;;;;;;2.51;84.54;98759.51;218923;1294;139323;-77
2023/04/07 08:38:27;;;;;;;15.40;11.50;;;;;;;2.55;84.44;98744.14;218507;1286;139222;-77
2023/04/07 08:43:38;;;;;;;18.30;12.40;;;;;;;2.55;84.26;98745.24;219630;1298;139383;-79
2023/04/07 08:48:51;;;;;;;15.80;11.90;;;;;;;2.56;84.54;98727.75;219261;1294;138892;-78
2023/04/07 08:54:24;;;;;;;15.30;11.30;;;;;;;2.62;84.69;98720.76;219377;1293;139393;-78
2023/04/07 08:59:28;;;;;;;18.20;12.80;;;;;;;2.68;84.44;98726.23;218977;1302;140234;-76
2023/04/07 09:04:44;;;;;;;17.70;12.60;;;;;;;2.73;84.34;98737.08;220421;1296;22570;-76
2023/04/07 09:11:05;;;;;;;18.10;11.80;;;;;;;2.80;84.52;98746.84;219003;1299;22553;-77
2023/04/07 09:16:08;;;;;;;15.60;12.30;;;;;;;2.83;84.25;98734.91;218888;1299;22591;-77
2023/04/07 09:21:15;;;;;;;17.90;12.70;;;;;;;2.87;84.28;98734.27;218048;1288;138765;-77
2023/04/07 09:26:40;;;;;;;16.30;12.10;;;;;;;2.89;84.23;98742.63;218001;1299;138974;-77
2023/04/07 09:31:49;;;;;;;15.30;10.90;;;;;;;2.93;84.18;98739.14;218298;1297;139398;-77
2023/04/07 09:36:56;;;;;;;14.20;11.00;;;;;;;2.97;84.06;98735.93;218083;1292;138963;-76
2023/04/07 09:42:10;;;;;;;15.10;11.60;;;;;;;3.03;84.10;98725.59;218100;1298;139006;-77
2023/04/07 09:47:13;;;;;;;14.30;10.70;;;;;;;3.15;84.10;98728.55;218287;1301;138803;-76
2023/04/07 09:53:17;;;;;;;;;;;;;;;;;;;;;
2023/04/07 09:58:39;;;;;;;13.60;10.50;;;;;;;3.34;84.14;98716.70;216445;1305;24263;-76
2023/04/07 10:03:46;;;;;;;17.60;12.90;;;;;;;3.37;83.67;98712.18;218125;1296;138855;-77
2023/04/07 10:09:13;;;;;;;16.60;12.10;;;;;;;3.38;83.62;98724.49;218331;1295;139112;-77
2023/04/07 10:14:18;;;;;;;16.30;11.80;;;;;;;3.38;83.86;98725.54;218166;1293;138888;-76
2023/04/07 10:19:25;;;;;;;16.20;12.00;;;;;;;3.37;83.79;98719.19;217541;1291;450241;-77
2023/04/07 10:24:57;;;;;;;14.90;12.00;;;;;;;3.37;84.00;98724.55;218114;1293;138874;-75
2023/04/07 10:30:03;;;;;;;14.70;11.60;;;;;;;3.43;84.04;98722.95;218418;1301;139035;-77
2023/04/07 10:35:22;;;;;;;16.00;12.10;;;;;;;3.43;83.91;98716.09;218833;1299;22681;-76
2023/04/07 10:41:35;;;;;;;;;;;;;;;;;;;;;
2023/04/07 10:47:30;;;;;;;15.50;11.90;;;;;;;3.39;83.87;98720.52;219438;1296;22583;-76
2023/04/07 10:53:17;;;;;;;13.90;10.70;;;;;;;3.37;83.91;98725.62;218103;1298;22646;-76
2023/04/07 10:58:27;;;;;;;14.20;9.70;;;;;;;3.31;83.98;98723.73;218401;1294;22658;-77
2023/04/07 11:04:08;;;;;;;;;;;;;;;;;;;;;
2023/04/07 11:09:44;;;;;;;15.20;12.40;;;;;;;3.30;84.26;98720.68;219482;1301;138685;-76
2023/04/07 11:15:10;;;;;;;;;;;;;;;;;;;;;
2023/04/07 11:20:52;;;;;;;;;;;;;;;;;;;;;
2023/04/07 11:26:11;;;;;;;17.70;13.30;;;;;;;3.30;84.76;98721.15;218863;1290;139416;-75
2023/04/07 11:31:30;;;;;;;16.20;12.10;;;;;;;3.34;84.70;98717.33;218269;1298;138884;-75
2023/04/07 11:36:38;;;;;;;16.50;13.00;;;;;;;3.35;84.62;98722.13;218145;1301;138958;-76
2023/04/07 11:41:49;;;;;;;18.10;13.90;;;;;;;3.29;84.68;98720.12;218378;1298;139629;-76
2023/04/07 11:47:02;;;;;;;18.80;14.10;;;;;;;3.24;84.82;98717.81;218434;1301;25300;-77
2023/04/07 11:52:11;;;;;;;17.10;12.70;;;;;;;3.22;85.05;98715.56;218333;1295;138707;-78
2023/04/07 11:57:23;;;;;;;17.30;13.60;;;;;;;3.20;85.16;98716.75;218005;1297;138686;-78
2023/04/07 12:02:32;;;;;;;17.30;13.60;;;;;;;3.20;85.32;98713.10;218432;1295;139364;-76
2023/04/07 12:07:40;;;;;;;20.60;15.20;;;;;;;3.22;85.36;98708.23;218233;1282;138882;-74
2023/04/07 12:12:45;;;;;;;18.80;14.40;;;;;;;3.26;85.60;98704.89;218014;1287;138920;-75
2023/04/07 12:17:48;;;;;;;19.00;15.40;;;;;;;3.27;85.72;98701.16;217671;1299;139041;-75
2023/04/07 12:22:54;;;;;;;21.20;15.20;;;;;;;3.24;85.76;98695.30;217969;1298;25382;-75
2023/04/07 12:28:00;;;;;;;21.80;16.90;;;;;;;3.22;85.75;98695.50;217873;1302;138728;-75
2023/04/07 12:33:02;;;;;;;22.50;16.50;;;;;;;3.23;85.97;98698.91;217810;1299;138865;-75
2023/04/07 12:38:07;;;;;;;22.80;16.30;;;;;;;3.25;85.99;98695.21;218240;1284;139141;-75
2023/04/07 12:43:10;;;;;;;20.50;15.90;;;;;;;3.30;85.99;98698.78;218117;1300;139615;-74
2023/04/07 12:48:17;;;;;;;23.00;16.40;;;;;;;3.33;86.34;98688.21;217946;1297;139019;-77
2023/04/07 12:53:26;;;;;;;20.20;15.70;;;;;;;3.36;86.17;98695.94;218261;1295;23794;-76
2023/04/07 12:58:29;;;;;;;20.60;15.70;;;;;;;3.37;85.93;98701.38;218346;1300;25100;-77
2023/04/07 13:03:34;;;;;;;23.70;16.90;;;;;;;3.38;86.05;98701.29;217925;1302;138551;-77
2023/04/07 13:08:38;;;;;;;21.60;16.10;;;;;;;3.39;86.18;98703.48;217842;1301;139041;-76
2023/04/07 13:13:41;;;;;;;22.40;15.90;;;;;;;3.39;86.16;98703.48;217825;1302;138801;-77
2023/04/07 13:18:46;;;;;;;24.20;17.60;;;;;;;3.37;85.96;98700.74;218044;1283;138802;-77
2023/04/07 13:23:59;;;;;;;21.70;16.90;;;;;;;3.33;86.12;98700.90;217862;1301;139019;-76
2023/04/07 13:29:17;;;;;;;22.80;16.50;;;;;;;3.37;86.42;98702.15;218057;1301;25285;-77
2023/04/07 13:34:47;;;;;;;27.30;20.00;;;;;;;3.41;86.49;98704.15;218257;1298;138597;-78
2023/04/07 13:40:02;;;;;;;26.60;19.80;;;;;;;3.40;86.35;98702.66;218105;1296;138728;-77
2023/04/07 13:45:22;;;;;;;25.30;19.70;;;;;;;3.37;86.48;98703.64;218126;1298;138804;-76
2023/04/07 13:50:26;;;;;;;29.50;20.10;;;;;;;3.36;86.46;98709.35;218248;1295;138895;-75
2023/04/07 13:55:56;;;;;;;24.20;18.50;;;;;;;3.39;86.74;98709.75;216875;1303;139509;-74
2023/04/07 14:01:06;;;;;;;23.50;16.70;;;;;;;3.41;86.75;98713.33;217145;1286;22607;-74
2023/04/07 14:06:10;;;;;;;24.80;17.40;;;;;;;3.39;86.59;98709.02;217122;1299;25336;-74
2023/04/07 14:11:16;;;;;;;22.30;16.20;;;;;;;3.40;86.72;98710.00;216542;1306;22698;-76
2023/04/07 14:16:22;;;;;;;;;;;;;;;3.43;86.98;98715.79;216818;1305;22566;-75
2023/04/07 14:21:30;;;;;;;29.30;19.00;;;;;;;3.44;86.93;98716.23;216888;1295;22694;-75
2023/04/07 14:26:32;;;;;;;28.80;19.40;;;;;;;3.44;86.96;98719.36;217498;1302;25576;-74
2023/04/07 14:31:34;;;;;;;28.80;19.50;;;;;;;3.45;87.16;98721.84;217962;1281;25311;-75
2023/04/07 14:36:37;;;;;;;27.60;18.00;;;;;;;3.47;87.21;98720.43;217986;1296;22593;-75
2023/04/07 14:41:40;;;;;;;24.00;18.20;;;;;;;3.49;87.38;98719.60;217934;1287;25266;-76
2023/04/07 14:46:43;;;;;;;26.90;19.20;;;;;;;3.52;87.49;98719.84;217744;1301;22536;-74
2023/04/07 14:51:46;;;;;;;25.70;18.00;;;;;;;3.53;87.21;98721.65;217924;1297;22633;-75
2023/04/07 14:56:52;;;;;;;22.50;16.50;;;;;;;3.51;87.41;98718.30;217767;1299;23282;-74
2023/04/07 15:01:54;;;;;;;22.90;17.20;;;;;;;3.49;87.40;98715.22;217750;1299;22671;-75
2023/04/07 15:06:57;;;;;;;22.60;16.40;;;;;;;3.48;87.38;98715.81;218024;1300;22589;-75
2023/04/07 15:12:01;;;;;;;23.30;16.50;;;;;;;3.49;87.43;98717.45;217753;1295;22550;-74
2023/04/07 15:17:03;;;;;;;24.60;17.70;;;;;;;3.52;87.71;98713.73;218190;1299;22566;-75
2023/04/07 15:22:06;;;;;;;24.90;18.00;;;;;;;3.56;87.73;98708.81;217782;1296;25304;-75
2023/04/07 15:27:09;;;;;;;22.50;16.50;;;;;;;3.59;87.74;98710.58;217746;1289;24254;-75
2023/04/07 15:32:12;;;;;;;23.70;17.00;;;;;;;3.63;87.84;98711.33;218118;1301;22546;-76
2023/04/07 15:37:16;;;;;;;23.70;17.80;;;;;;;3.63;87.69;98706.46;217712;1296;25133;-74
2023/04/07 15:42:18;;;;;;;29.10;20.40;;;;;;;3.62;87.65;98713.45;218156;1296;24851;-75
2023/04/07 15:47:21;;;;;;;28.20;19.50;;;;;;;3.62;87.78;98715.54;217806;1289;22604;-75
2023/04/07 15:52:24;;;;;;;26.40;18.60;;;;;;;3.63;87.90;98711.83;217829;1295;22551;-75
2023/04/07 15:57:27;;;;;;;23.90;16.80;;;;;;;3.61;87.82;98716.48;217803;1298;22680;-74
2023/04/07 16:02:29;;;;;;;25.20;17.30;;;;;;;3.60;87.89;98719.23;218131;1298;23954;-75
2023/04/07 16:07:32;;;;;;;28.90;19.70;;;;;;;3.59;87.76;98720.74;217678;1292;22707;-76
2023/04/07 16:12:43;;;;;;;33.10;22.70;;;;;;;3.60;87.93;98723.77;218087;1286;25372;-74
2023/04/07 16:17:47;;;;;;;34.30;23.00;;;;;;;3.62;88.09;98722.14;217552;1296;25259;-74
2023/04/07 16:22:51;;;;;;;30.70;20.40;;;;;;;3.63;88.07;98727.48;217792;1293;22987;-73
2023/04/07 16:27:53;;;;;;;27.20;19.30;;;;;;;3.64;88.00;98729.28;217908;1301;24308;-75
2023/04/07 16:33:00;;;;;;;25.00;17.80;;;;;;;3.65;88.03;98729.75;218042;1296;22562;-75
2023/04/07 16:38:11;;;;;;;25.40;18.80;;;;;;;3.62;87.98;98732.77;218092;1300;22892;-75
2023/04/07 16:43:17;;;;;;;28.50;20.10;;;;;;;3.61;87.95;98738.25;218044;1301;22556;-76
2023/04/07 16:48:29;;;;;;;36.10;22.60;;;;;;;3.61;88.07;98741.42;217959;1301;22906;-75
2023/04/07 16:53:32;;;;;;;33.40;23.30;;;;;;;3.61;88.12;98741.80;218009;1301;22699;-75
2023/04/07 16:58:47;;;;;;;53.80;35.50;;;;;;;3.59;87.96;98747.36;218016;1299;24266;-75
2023/04/07 17:03:57;;;;;;;30.50;21.90;;;;;;;3.58;88.18;98752.13;218074;1280;22659;-73
2023/04/07 17:09:03;;;;;;;32.70;22.50;;;;;;;3.58;87.99;98757.76;218275;1301;23820;-75
2023/04/07 17:14:05;;;;;;;37.30;23.80;;;;;;;3.58;88.22;98762.80;218004;1293;24238;-75
2023/04/07 17:19:08;;;;;;;35.40;24.70;;;;;;;3.58;88.09;98766.77;217741;1301;22599;-75
2023/04/07 17:24:14;;;;;;;34.70;23.60;;;;;;;3.57;88.20;98773.13;217823;1299;26394;-75
2023/04/07 17:29:27;;;;;;;38.90;26.60;;;;;;;3.56;88.15;98769.21;217832;1301;24402;-75
2023/04/07 17:34:31;;;;;;;34.50;24.90;;;;;;;3.56;88.37;98773.75;217899;1301;22563;-75
2023/04/07 17:39:35;;;;;;;43.00;30.60;;;;;;;3.59;88.50;98771.42;218345;1296;23003;-75
2023/04/07 17:44:37;;;;;;;45.30;30.40;;;;;;;3.62;88.57;98778.12;218292;1280;25380;-75
2023/04/07 17:49:49;;;;;;;49.50;31.30;;;;;;;3.65;88.56;98780.79;217981;1296;24269;-75
2023/04/07 17:55:01;;;;;;;44.20;29.40;;;;;;;3.68;88.62;98782.17;218023;1301;22560;-74
2023/04/07 18:00:07;;;;;;;43.70;28.80;;;;;;;3.69;88.49;98797.94;217849;1301;22734;-75
2023/04/07 18:05:19;;;;;;;39.90;28.70;;;;;;;3.66;88.43;98801.70;217986;1290;26882;-75
2023/04/07 18:10:22;;;;;;;45.40;31.40;;;;;;;3.63;88.32;98805.16;217711;1301;22562;-75
2023/04/07 18:15:25;;;;;;;37.60;26.80;;;;;;;3.62;88.50;98809.77;217999;1293;22569;-78
2023/04/07 18:20:28;;;;;;;40.50;28.30;;;;;;;3.62;88.50;98817.64;217882;1301;24328;-79
2023/04/07 18:25:30;;;;;;;54.60;37.70;;;;;;;3.64;88.63;98819.20;218002;1279;22757;-80
2023/04/07 18:30:33;;;;;;;36.60;26.20;;;;;;;3.67;88.66;98822.68;218046;1295;22561;-80
2023/04/07 18:35:36;;;;;;;38.60;26.60;;;;;;;3.68;88.57;98825.44;218161;1282;24297;-80
2023/04/07 18:40:39;;;;;;;43.40;29.20;;;;;;;3.68;88.53;98826.16;218112;1289;22546;-81
2023/04/07 18:45:45;;;;;;;42.20;27.90;;;;;;;3.69;88.69;98833.66;217890;1299;25309;-80
2023/04/07 18:50:50;;;;;;;43.10;29.30;;;;;;;3.70;88.74;98838.83;218039;1282;22624;-79
2023/04/07 18:55:54;;;;;;;44.40;29.30;;;;;;;3.69;88.70;98837.52;218174;1298;22568;-79
2023/04/07 19:00:57;;;;;;;47.00;31.00;;;;;;;3.67;88.52;98834.73;218093;1298;23059;-80
2023/04/07 19:06:05;;;;;;;46.10;29.70;;;;;;;3.67;88.74;98837.32;218001;1296;25528;-79
2023/04/07 19:11:08;;;;;;;53.20;32.50;;;;;;;3.69;88.76;98836.46;218217;1300;24256;-79
2023/04/07 19:16:11;;;;;;;56.80;33.20;;;;;;;3.70;88.72;98831.52;218130;1286;24348;-80
2023/04/07 19:21:17;;;;;;;54.90;32.60;;;;;;;3.72;88.72;98839.45;218212;1300;24774;-79
2023/04/07 19:26:21;;;;;;;55.10;33.40;;;;;;;3.71;88.60;98845.20;217843;1296;25311;-80
2023/04/07 19:31:24;;;;;;;55.30;33.60;;;;;;;3.68;88.75;98845.63;218047;1296;22616;-80
2023/04/07 19:36:30;;;;;;;53.10;32.70;;;;;;;3.69;88.67;98846.92;218236;1286;25369;-80
2023/04/07 19:41:33;;;;;;;56.20;33.70;;;;;;;3.71;88.76;98846.34;217950;1301;22668;-80
2023/04/07 19:46:36;;;;;;;50.10;31.10;;;;;;;3.72;88.81;98845.20;218026;1292;22546;-82
2023/04/07 19:51:40;;;;;;;55.80;34.00;;;;;;;3.71;88.82;98843.28;218250;1296;22577;-80
2023/04/07 19:56:50;;;;;;;56.90;34.10;;;;;;;3.70;88.84;98844.59;218119;1301;24295;-80
2023/04/07 20:01:54;;;;;;;52.70;32.50;;;;;;;3.68;88.82;98841.95;218048;1301;22616;-80
2023/04/07 20:06:56;;;;;;;56.00;33.30;;;;;;;3.69;89.00;98844.80;218016;1301;22548;-80
2023/04/07 20:12:00;;;;;;;53.50;32.70;;;;;;;3.70;89.06;98845.10;217642;1301;22791;-80
2023/04/07 20:17:03;;;;;;;49.20;30.20;;;;;;;3.70;89.04;98848.56;217812;1280;25428;-80
2023/04/07 20:22:07;;;;;;;43.40;28.40;;;;;;;3.72;89.20;98849.61;218050;1301;23969;-80
2023/04/07 20:27:09;;;;;;;42.50;26.40;;;;;;;3.71;89.06;98841.48;218018;1300;24258;-78
2023/04/07 20:32:12;;;;;;;43.00;25.90;;;;;;;3.70;89.01;98842.27;218126;1299;25904;-80
2023/04/07 20:37:15;;;;;;;44.10;28.40;;;;;;;3.69;88.97;98846.04;218193;1301;22565;-80
2023/04/07 20:42:18;;;;;;;41.90;26.50;;;;;;;3.70;89.06;98847.13;218246;1298;22566;-80
2023/04/07 20:47:23;;;;;;;42.20;25.70;;;;;;;3.72;89.07;98847.31;218126;1298;22556;-80
2023/04/07 20:52:38;;;;;;;36.70;23.60;;;;;;;3.72;89.12;98847.48;218194;1293;25267;-78
2023/04/07 20:57:41;;;;;;;37.80;23.60;;;;;;;3.74;89.11;98849.93;218044;1293;22561;-80
2023/04/07 21:02:46;;;;;;;40.50;24.00;;;;;;;3.76;89.29;98855.13;218297;1293;22662;-80
2023/04/07 21:07:50;;;;;;;37.60;22.70;;;;;;;3.79;89.33;98857.27;218050;1296;25505;-80
2023/04/07 21:13:14;;;;;;;36.40;21.40;;;;;;;3.81;89.24;98860.08;217993;1301;23616;-80
2023/04/07 21:18:17;;;;;;;32.90;21.10;;;;;;;3.80;89.03;98857.68;218111;1301;22559;-79
2023/04/07 21:23:21;;;;;;;33.90;20.90;;;;;;;3.80;89.03;98853.73;217894;1299;22573;-80
2023/04/07 21:28:23;;;;;;;36.60;22.00;;;;;;;3.81;89.15;98854.67;218087;1289;23299;-80
2023/04/07 21:33:26;;;;;;;33.70;21.00;;;;;;;3.83;89.23;98852.36;218196;1300;22704;-79
2023/04/07 21:38:29;;;;;;;36.50;22.50;;;;;;;3.85;89.27;98855.98;218114;1293;22572;-80
2023/04/07 21:43:33;;;;;;;36.50;22.30;;;;;;;3.88;89.34;98852.95;218271;1299;25417;-81
2023/04/07 21:48:46;;;;;;;41.70;23.30;;;;;;;3.94;89.42;98853.17;218210;1301;24298;-79
2023/04/07 21:53:53;;;;;;;35.30;21.60;;;;;;;3.95;89.33;98855.95;218162;1296;23159;-78
2023/04/07 21:58:55;;;;;;;30.40;18.80;;;;;;;3.99;89.48;98860.33;218091;1301;22546;-80
2023/04/07 22:03:58;;;;;;;27.80;17.70;;;;;;;4.04;89.65;98860.87;218305;1294;24121;-78
2023/04/07 22:09:02;;;;;;;27.70;18.00;;;;;;;4.06;89.58;98861.14;218086;1301;25473;-80
2023/04/07 22:14:05;;;;;;;29.80;19.50;;;;;;;4.10;89.57;98860.63;218193;1294;25261;-80
2023/04/07 22:19:08;;;;;;;24.40;17.60;;;;;;;4.11;89.47;98861.89;217997;1299;381370;-80
2023/04/07 22:24:11;;;;;;;33.10;19.90;;;;;;;4.13;89.38;98867.89;218160;1293;25340;-80
2023/04/07 22:29:17;;;;;;;32.60;20.80;;;;;;;4.14;89.32;98864.75;218139;1301;25419;-80
2023/04/07 22:34:20;;;;;;;36.00;21.60;;;;;;;4.17;89.44;98863.06;218193;1301;22534;-80
2023/04/07 22:39:23;;;;;;;38.10;22.70;;;;;;;4.21;89.33;98865.83;217889;1280;22574;-80
2023/04/07 22:44:26;;;;;;;31.70;19.70;;;;;;;4.21;89.28;98866.33;218012;1298;22550;-80
2023/04/07 22:49:29;;;;;;;27.30;17.70;;;;;;;4.21;89.10;98865.30;217931;1287;24316;-79
2023/04/07 22:54:32;;;;;;;32.80;19.90;;;;;;;4.21;89.09;98870.54;218030;1293;25427;-80
2023/04/07 22:59:35;;;;;;;34.90;20.30;;;;;;;4.21;88.98;98870.54;218096;1295;25321;-79
2023/04/07 23:04:41;;;;;;;34.20;22.00;;;;;;;4.20;88.98;98875.68;218164;1301;24500;-79
2023/04/07 23:09:45;;;;;;;40.20;24.70;;;;;;;4.20;89.05;98884.60;218272;1294;25264;-80
2023/04/07 23:14:53;;;;;;;50.00;27.40;;;;;;;4.19;89.16;98887.14;217731;1301;22546;-80
2023/04/07 23:19:56;;;;;;;42.50;24.60;;;;;;;4.15;88.91;98888.55;218079;1287;22677;-79
2023/04/07 23:25:01;;;;;;;36.10;21.90;;;;;;;4.12;88.91;98892.91;217932;1296;26116;-79
2023/04/07 23:30:05;;;;;;;43.30;25.70;;;;;;;4.10;89.05;98895.47;217951;1300;22671;-81
2023/04/07 23:35:13;;;;;;;35.20;21.70;;;;;;;4.07;88.89;98895.78;218200;1300;24256;-79
2023/04/07 23:40:19;;;;;;;31.50;20.00;;;;;;;4.03;88.67;98900.14;217841;1296;24087;-78
2023/04/07 23:45:29;;;;;;;29.00;18.80;;;;;;;3.99;88.71;98900.02;217859;1301;22565;-79
2023/04/07 23:50:47;;;;;;;32.00;21.30;;;;;;;3.96;88.55;98901.89;217917;1296;26218;-79
2023/04/07 23:55:50;;;;;;;36.30;22.90;;;;;;;3.89;88.31;98897.25;218340;1298;25368;-79
